Time;durP1;ratioP1;P1;durP2;ratioP2;P2;SDS_P1;SDS_P2;PMS_P1;PMS_P2;Temp;Humidity;BMP_temperature;BMP_pressure;BME280_temperature;BME280_humidity;BME280_pressure;Samples;Min_cycle;Max_cycle;Signal;HPM_P1;HPM_P2
2021/09/23 00:01:49;;;;;;;4.67;3.87;;;9.20;99.90;;;;;;1870544;76;21092;-78
2021/09/23 00:04:32;;;;;;;7.03;3.35;;;9.20;99.90;;;;;;1860537;75;21170;-77
2021/09/23 00:06:50;;;;;;;5.87;3.58;;;9.10;99.90;;;;;;1859726;76;21556;-77
2021/09/23 00:09:16;;;;;;;5.72;3.47;;;9.10;99.90;;;;;;1863096;75;21096;-76
2021/09/23 00:11:43;;;;;;;7.45;3.65;;;9.10;99.90;;;;;;1857720;76;21104;-77
2021/09/23 00:14:09;;;;;;;6.83;3.65;;;9.10;99.90;;;;;;1858296;75;21084;-76
2021/09/23 00:16:35;;;;;;;3.72;3.20;;;9.00;99.90;;;;;;1878029;75;21096;-76
2021/09/23 00:19:01;;;;;;;4.70;3.35;;;9.00;99.90;;;;;;1862628;76;21104;-77
2021/09/23 00:21:27;;;;;;;4.42;3.12;;;8.90;99.90;;;;;;1858278;76;21492;-76
2021/09/23 00:23:55;;;;;;;5.20;2.85;;;8.90;99.90;;;;;;1858246;76;21820;-77
2021/09/23 00:26:23;;;;;;;4.75;3.25;;;9.00;99.90;;;;;;1858255;75;21061;-77
2021/09/23 00:28:49;;;;;;;3.17;2.62;;;9.00;99.90;;;;;;1863353;76;21167;-77
2021/09/23 00:31:15;;;;;;;5.53;3.65;;;9.00;99.90;;;;;;1867097;76;21166;-76
2021/09/23 00:33:41;;;;;;;3.60;3.20;;;9.00;99.90;;;;;;1868102;76;21092;-76
2021/09/23 00:36:09;;;;;;;12.98;3.95;;;8.90;99.90;;;;;;1863137;76;21178;-76
2021/09/23 00:38:36;;;;;;;7.85;4.05;;;8.90;99.90;;;;;;1830090;76;21146;-77
2021/09/23 00:41:04;;;;;;;3.65;3.35;;;8.90;99.90;;;;;;1857962;76;21162;-77
2021/09/23 00:43:32;;;;;;;8.70;3.92;;;8.90;99.90;;;;;;1858380;76;21092;-77
2021/09/23 00:45:58;;;;;;;3.05;2.85;;;8.80;99.90;;;;;;1858495;76;21128;-77
2021/09/23 00:48:25;;;;;;;5.65;3.60;;;8.80;99.90;;;;;;1858341;76;21089;-76
2021/09/23 00:50:53;;;;;;;4.67;3.58;;;8.80;99.90;;;;;;1873146;76;21072;-76
2021/09/23 00:53:21;;;;;;;8.20;3.58;;;8.80;99.90;;;;;;1863207;76;21100;-77
2021/09/23 00:55:49;;;;;;;6.08;4.05;;;8.80;99.90;;;;;;1858212;76;21170;-77
2021/09/23 00:58:17;;;;;;;6.90;4.17;;;8.80;99.90;;;;;;1858501;76;21162;-76
2021/09/23 01:00:43;;;;;;;7.62;4.60;;;8.80;99.90;;;;;;1867196;75;21170;-77
2021/09/23 01:03:12;;;;;;;6.08;4.55;;;8.70;99.90;;;;;;1862889;76;21606;-77
2021/09/23 01:05:40;;;;;;;9.73;4.72;;;8.70;99.90;;;;;;1862367;75;21131;-77
2021/09/23 01:08:07;;;;;;;6.95;4.87;;;8.70;99.90;;;;;;1846514;76;21076;-76
2021/09/23 01:10:35;;;;;;;6.20;4.67;;;8.70;99.90;;;;;;1858697;76;21090;-78
2021/09/23 01:13:01;;;;;;;4.70;4.17;;;8.70;99.90;;;;;;1866351;75;21117;-76
2021/09/23 01:15:27;;;;;;;9.95;5.03;;;8.70;99.90;;;;;;1863136;76;21099;-76
2021/09/23 01:17:54;;;;;;;10.58;4.95;;;8.60;99.90;;;;;;1828306;77;21131;-77
2021/09/23 01:20:20;;;;;;;4.55;3.85;;;8.60;99.90;;;;;;1867462;76;21095;-78
2021/09/23 01:22:46;;;;;;;5.65;4.15;;;8.60;99.90;;;;;;1833565;77;21069;-78
2021/09/23 01:25:12;;;;;;;6.42;3.70;;;8.60;99.90;;;;;;1858112;75;21525;-78
2021/09/23 01:27:39;;;;;;;4.30;3.35;;;8.50;99.90;;;;;;1833679;76;21120;-75
2021/09/23 01:30:05;;;;;;;4.58;3.83;;;8.50;99.90;;;;;;1853246;77;21061;-77
2021/09/23 01:32:31;;;;;;;5.47;3.62;;;8.50;99.90;;;;;;1836544;76;21076;-77
2021/09/23 01:34:57;;;;;;;4.37;3.50;;;8.40;99.90;;;;;;1834798;76;21072;-76
2021/09/23 01:37:26;;;;;;;8.90;2.98;;;8.40;99.90;;;;;;1868253;76;21158;-78
2021/09/23 01:39:52;;;;;;;14.00;4.15;;;8.40;99.90;;;;;;1862145;76;21085;-78
2021/09/23 01:42:18;;;;;;;5.15;3.98;;;8.40;99.90;;;;;;1859049;76;21135;-78
2021/09/23 01:44:45;;;;;;;6.00;3.77;;;8.40;99.90;;;;;;1863285;76;21222;-78
2021/09/23 01:47:11;;;;;;;5.62;3.75;;;8.30;99.90;;;;;;1858364;76;21096;-77
2021/09/23 01:49:40;;;;;;;8.23;3.45;;;8.30;99.90;;;;;;1853656;77;21158;-77
2021/09/23 01:52:10;;;;;;;6.95;4.00;;;8.20;99.90;;;;;;1858085;75;21429;-78
2021/09/23 01:54:39;;;;;;;6.45;3.75;;;8.30;99.90;;;;;;1836101;76;21474;-76
2021/09/23 01:57:05;;;;;;;5.72;4.20;;;8.30;99.90;;;;;;1863846;75;21069;-76
2021/09/23 01:59:31;;;;;;;6.53;4.83;;;8.30;99.90;;;;;;1863498;76;21519;-78
2021/09/23 02:01:58;;;;;;;4.97;4.00;;;8.20;99.90;;;;;;1866742;75;21082;-78
2021/09/23 02:04:24;;;;;;;8.68;4.17;;;8.10;99.90;;;;;;1842469;76;21167;-76
2021/09/23 02:06:50;;;;;;;7.08;4.37;;;8.10;99.90;;;;;;1835774;76;21072;-76
2021/09/23 02:09:20;;;;;;;6.95;4.42;;;8.20;99.90;;;;;;1865399;76;21104;-77
2021/09/23 02:11:46;;;;;;;8.80;4.33;;;8.20;99.90;;;;;;1863145;76;21500;-76
2021/09/23 02:14:12;;;;;;;3.87;3.58;;;8.20;99.90;;;;;;1858806;76;21559;-76
2021/09/23 02:16:43;;;;;;;5.40;3.95;;;8.20;99.90;;;;;;1852595;76;21255;-76
2021/09/23 02:19:09;;;;;;;4.55;3.80;;;8.30;99.90;;;;;;1858234;76;21088;-76
2021/09/23 02:21:38;;;;;;;6.03;4.15;;;8.20;99.90;;;;;;1838413;76;21049;-79
2021/09/23 02:24:03;;;;;;;7.12;4.30;;;8.10;99.90;;;;;;1863155;75;21080;-76
2021/09/23 02:26:33;;;;;;;4.85;4.10;;;8.20;99.90;;;;;;1853168;76;21535;-76
2021/09/23 02:28:59;;;;;;;10.43;4.60;;;8.10;99.90;;;;;;1853306;76;21139;-76
2021/09/23 02:31:25;;;;;;;6.20;4.53;;;8.20;99.90;;;;;;1858210;76;21178;-77
2021/09/23 02:33:51;;;;;;;5.28;3.90;;;8.10;99.90;;;;;;1857732;76;21173;-77
2021/09/23 02:36:18;;;;;;;6.30;4.20;;;8.10;99.90;;;;;;1858353;75;21152;-76
2021/09/23 02:38:45;;;;;;;12.58;3.95;;;8.10;99.90;;;;;;1861113;76;21148;-77
2021/09/23 02:41:12;;;;;;;5.28;3.77;;;8.00;99.90;;;;;;1868663;75;21469;-76
2021/09/23 02:43:38;;;;;;;4.47;3.65;;;8.00;99.90;;;;;;1863428;75;21146;-76
2021/09/23 02:46:04;;;;;;;6.17;3.87;;;8.00;99.90;;;;;;1867119;76;21061;-77
2021/09/23 02:48:33;;;;;;;7.80;4.37;;;7.90;99.90;;;;;;1875819;75;21217;-77
2021/09/23 02:50:58;;;;;;;6.72;4.03;;;7.90;99.90;;;;;;1853174;76;21174;-76
2021/09/23 02:53:24;;;;;;;7.75;4.10;;;7.90;99.90;;;;;;1857836;76;21178;-77
2021/09/23 02:55:52;;;;;;;6.90;4.62;;;7.90;99.90;;;;;;1859585;76;21166;-77
2021/09/23 02:58:21;;;;;;;6.10;4.60;;;7.80;99.90;;;;;;1868279;76;21161;-79
2021/09/23 03:00:50;;;;;;;;;;;7.80;99.90;;;;;;1855911;76;21058;-78
2021/09/23 03:03:18;;;;;;;6.33;4.37;;;7.80;99.90;;;;;;1863166;76;20131;-78
2021/09/23 03:05:44;;;;;;;9.58;5.22;;;7.80;99.90;;;;;;1857739;76;21207;-77
2021/09/23 03:08:10;;;;;;;6.72;5.17;;;7.80;99.90;;;;;;1853717;76;21062;-77
2021/09/23 03:10:36;;;;;;;6.20;4.87;;;7.80;99.90;;;;;;1853233;76;21104;-76
2021/09/23 03:13:04;;;;;;;12.25;5.58;;;7.70;99.90;;;;;;1858675;76;21169;-78
2021/09/23 03:15:30;;;;;;;6.20;5.60;;;7.70;99.90;;;;;;1864230;76;21098;-77
2021/09/23 03:17:56;;;;;;;9.03;5.33;;;7.70;99.90;;;;;;1866402;74;21143;-78
2021/09/23 03:20:25;;;;;;;6.90;5.15;;;7.60;99.90;;;;;;1861127;74;21061;-78
2021/09/23 03:22:51;;;;;;;5.80;4.75;;;7.60;99.90;;;;;;1861201;76;21065;-78
2021/09/23 03:25:17;;;;;;;6.55;5.90;;;7.60;99.90;;;;;;1871546;75;21153;-78
2021/09/23 03:27:45;;;;;;;7.55;5.72;;;7.70;99.90;;;;;;1858416;76;21100;-77
2021/09/23 03:30:11;;;;;;;6.40;5.42;;;7.50;99.90;;;;;;1869729;76;21499;-77
2021/09/23 03:32:37;;;;;;;6.65;4.92;;;7.50;99.90;;;;;;1858111;75;21512;-79
2021/09/23 03:35:05;;;;;;;6.85;5.22;;;7.60;99.90;;;;;;1871240;76;21102;-76
2021/09/23 03:37:33;;;;;;;11.95;6.17;;;7.50;99.90;;;;;;1866962;76;21158;-77
2021/09/23 03:39:59;;;;;;;10.78;4.95;;;7.50;99.90;;;;;;1853342;76;21201;-77
2021/09/23 03:42:25;;;;;;;6.92;5.15;;;7.50;99.90;;;;;;1858756;76;21088;-76
2021/09/23 03:44:51;;;;;;;7.25;5.12;;;7.50;99.90;;;;;;1852833;76;21042;-77
2021/09/23 03:47:17;;;;;;;8.55;5.42;;;7.50;99.90;;;;;;1858285;76;21166;-77
2021/09/23 03:49:43;;;;;;;7.95;4.60;;;7.50;99.90;;;;;;1863493;76;21158;-77
2021/09/23 03:52:09;;;;;;;6.70;4.78;;;7.50;99.90;;;;;;1853362;76;21272;-76
2021/09/23 03:54:39;;;;;;;8.08;4.85;;;7.40;99.90;;;;;;1853622;76;21096;-76
2021/09/23 03:57:05;;;;;;;9.53;4.95;;;7.40;99.90;;;;;;1866337;75;21088;-76
2021/09/23 03:59:34;;;;;;;10.28;6.17;;;7.40;99.90;;;;;;1869475;76;21104;-77
2021/09/23 04:02:00;;;;;;;8.13;5.55;;;7.30;99.90;;;;;;1867307;76;21247;-76
2021/09/23 04:04:26;;;;;;;10.40;5.45;;;7.30;99.90;;;;;;1859301;75;21123;-76
2021/09/23 04:06:54;;;;;;;9.68;6.50;;;7.30;99.90;;;;;;1863427;76;21099;-77
2021/09/23 04:09:20;;;;;;;7.28;5.58;;;7.30;99.90;;;;;;1857729;76;21080;-77
2021/09/23 04:11:48;;;;;;;6.60;5.53;;;7.30;99.90;;;;;;1858851;76;21100;-76
2021/09/23 04:14:17;;;;;;;9.18;6.47;;;7.20;99.90;;;;;;1861364;76;21084;-77
2021/09/23 04:16:43;;;;;;;9.53;6.62;;;7.20;99.90;;;;;;1867249;76;21096;-76
2021/09/23 04:19:09;;;;;;;9.05;5.78;;;7.20;99.90;;;;;;1853303;76;21123;-77
2021/09/23 04:21:35;;;;;;;7.33;5.80;;;7.20;99.90;;;;;;1824257;76;21068;-77
2021/09/23 04:24:01;;;;;;;7.75;5.83;;;7.20;99.90;;;;;;1864936;76;21084;-77
2021/09/23 04:26:27;;;;;;;8.45;5.83;;;7.20;99.90;;;;;;1863058;76;21088;-77
2021/09/23 04:28:53;;;;;;;7.90;6.28;;;7.10;99.90;;;;;;1867086;76;21147;-76
2021/09/23 04:31:19;;;;;;;11.20;6.12;;;7.10;99.90;;;;;;1853608;76;21160;-75
2021/09/23 04:33:46;;;;;;;8.90;6.03;;;7.10;99.90;;;;;;1862744;76;21166;-76
2021/09/23 04:36:13;;;;;;;11.05;6.55;;;7.00;99.90;;;;;;1864035;76;21088;-77
2021/09/23 04:38:41;;;;;;;8.35;6.03;;;7.00;99.90;;;;;;1857306;76;21096;-76
2021/09/23 04:41:07;;;;;;;9.83;6.35;;;7.00;99.90;;;;;;1863318;76;21154;-75
2021/09/23 04:43:34;;;;;;;9.45;6.03;;;7.00;99.90;;;;;;1858258;76;21062;-76
2021/09/23 04:46:02;;;;;;;6.30;5.47;;;7.00;99.90;;;;;;1863230;76;21092;-77
2021/09/23 04:48:30;;;;;;;7.90;5.72;;;7.10;99.90;;;;;;1858040;76;21256;-77
2021/09/23 04:50:57;;;;;;;9.73;5.85;;;7.00;99.90;;;;;;1853241;76;21095;-78
2021/09/23 04:53:25;;;;;;;6.97;5.53;;;7.00;99.90;;;;;;1857982;76;21115;-77
2021/09/23 04:55:52;;;;;;;9.73;6.22;;;6.90;99.90;;;;;;1858306;76;21053;-77
2021/09/23 04:58:18;;;;;;;9.68;5.35;;;7.00;99.90;;;;;;1858368;76;21207;-78
2021/09/23 05:00:44;;;;;;;7.35;5.72;;;7.00;99.90;;;;;;1863258;76;21162;-77
2021/09/23 05:03:13;;;;;;;7.03;5.80;;;6.90;99.90;;;;;;1857823;76;21061;-74
2021/09/23 05:05:38;;;;;;;10.72;6.17;;;6.90;99.90;;;;;;1862145;76;21053;-74
2021/09/23 05:08:05;;;;;;;8.75;5.45;;;7.00;99.90;;;;;;1857972;76;21157;-74
2021/09/23 05:10:31;;;;;;;9.30;5.55;;;7.10;99.90;;;;;;1858317;76;21202;-74
2021/09/23 05:12:57;;;;;;;8.88;5.50;;;7.00;99.90;;;;;;1853300;76;21174;-76
2021/09/23 05:15:23;;;;;;;11.80;6.33;;;7.00;99.90;;;;;;1857848;76;21093;-78
2021/09/23 05:17:49;;;;;;;12.95;5.83;;;7.00;99.90;;;;;;1868103;76;21165;-75
2021/09/23 05:20:15;;;;;;;9.23;6.05;;;7.10;99.90;;;;;;1867924;76;21110;-73
2021/09/23 05:22:41;;;;;;;6.97;6.17;;;7.00;99.90;;;;;;1863415;76;21248;-75
2021/09/23 05:25:07;;;;;;;8.55;5.65;;;7.00;99.90;;;;;;1872532;75;21135;-76
2021/09/23 05:27:33;;;;;;;9.08;5.62;;;7.00;99.90;;;;;;1858215;75;21458;-77
2021/09/23 05:30:00;;;;;;;9.65;5.58;;;7.00;99.90;;;;;;1858134;76;21601;-76
2021/09/23 05:32:26;;;;;;;6.22;5.50;;;7.10;99.90;;;;;;1858115;76;21158;-76
2021/09/23 05:34:52;;;;;;;7.22;5.92;;;7.10;99.90;;;;;;1858220;76;21065;-75
2021/09/23 05:37:18;;;;;;;9.25;5.42;;;7.00;99.90;;;;;;1874456;76;21096;-78
2021/09/23 05:39:44;;;;;;;8.88;5.50;;;7.10;99.90;;;;;;1861400;76;21573;-78
2021/09/23 05:42:11;;;;;;;11.73;7.90;;;7.10;99.90;;;;;;1858150;76;21584;-76
2021/09/23 05:44:37;;;;;;;7.87;5.45;;;7.20;99.90;;;;;;1858192;76;21541;-76
2021/09/23 05:47:03;;;;;;;7.47;4.90;;;7.20;99.90;;;;;;1868030;76;21061;-75
2021/09/23 05:49:29;;;;;;;6.83;5.67;;;7.10;99.90;;;;;;1867764;76;21157;-77
2021/09/23 05:51:56;;;;;;;7.53;5.45;;;7.20;99.90;;;;;;1858216;76;21092;-77
2021/09/23 05:54:22;;;;;;;6.75;5.15;;;7.10;99.90;;;;;;1858242;76;21173;-76
2021/09/23 05:56:48;;;;;;;12.25;6.17;;;7.20;99.90;;;;;;1863158;75;21088;-77
2021/09/23 05:59:14;;;;;;;13.18;6.62;;;7.10;99.90;;;;;;1865415;75;21084;-83
2021/09/23 06:01:40;;;;;;;7.45;6.05;;;7.10;99.90;;;;;;1855793;76;21096;-77
2021/09/23 06:04:06;;;;;;;9.48;5.40;;;7.30;99.90;;;;;;1853564;76;21162;-77
2021/09/23 06:06:32;;;;;;;9.13;5.95;;;7.30;99.90;;;;;;1853614;76;21069;-80
2021/09/23 06:09:00;;;;;;;8.50;6.37;;;7.20;99.90;;;;;;1858507;76;21134;-77
2021/09/23 06:11:26;;;;;;;13.83;6.67;;;7.20;99.90;;;;;;1858312;76;21511;-78
2021/09/23 06:13:52;;;;;;;13.38;6.35;;;7.20;99.90;;;;;;1857085;76;21088;-78
2021/09/23 06:16:18;;;;;;;15.08;7.15;;;7.30;99.90;;;;;;1854319;76;21162;-79
2021/09/23 06:18:46;;;;;;;11.12;8.00;;;7.40;99.90;;;;;;1867354;76;21257;-78
2021/09/23 06:21:12;;;;;;;14.83;8.08;;;7.50;99.90;;;;;;1863557;76;21109;-77
2021/09/23 06:23:38;;;;;;;14.15;8.43;;;7.60;99.90;;;;;;1862749;75;21494;-78
2021/09/23 06:26:04;;;;;;;11.85;7.58;;;7.50;99.90;;;;;;1863086;76;21520;-74
2021/09/23 06:28:31;;;;;;;24.10;7.53;;;7.50;99.90;;;;;;1858182;76;21607;-78
2021/09/23 06:30:57;;;;;;;16.30;7.75;;;7.60;99.90;;;;;;1858141;76;21245;-78
2021/09/23 06:33:23;;;;;;;12.15;7.78;;;7.70;99.90;;;;;;1858867;76;21097;-77
2021/09/23 06:35:50;;;;;;;12.05;7.40;;;7.70;99.90;;;;;;1856577;76;21097;-78
2021/09/23 06:38:16;;;;;;;12.05;7.50;;;7.80;99.90;;;;;;1873348;76;21169;-77
2021/09/23 06:40:42;;;;;;;17.37;7.50;;;8.00;99.90;;;;;;1859860;76;21096;-77
2021/09/23 06:43:08;;;;;;;21.55;6.72;;;8.10;99.90;;;;;;1870657;76;21092;-77
2021/09/23 06:45:34;;;;;;;15.80;6.97;;;8.10;99.90;;;;;;1867239;76;21178;-78
2021/09/23 06:48:00;;;;;;;7.97;6.25;;;8.30;99.90;;;;;;1859309;76;21054;-77
2021/09/23 06:50:26;;;;;;;14.95;7.22;;;8.40;99.90;;;;;;1864000;76;21319;-77
2021/09/23 06:52:53;;;;;;;12.23;6.83;;;8.40;99.90;;;;;;1859678;76;21088;-77
2021/09/23 06:55:19;;;;;;;13.75;6.80;;;8.60;99.90;;;;;;1863495;76;21163;-78
2021/09/23 06:57:46;;;;;;;13.98;7.05;;;8.50;99.90;;;;;;1857471;76;21158;-78
2021/09/23 07:00:12;;;;;;;8.35;6.87;;;8.50;99.90;;;;;;1868938;76;21073;-77
2021/09/23 07:02:39;;;;;;;19.32;7.08;;;8.70;99.90;;;;;;1874491;75;21123;-75
2021/09/23 07:05:06;;;;;;;15.68;7.75;;;8.80;99.90;;;;;;1861435;76;21158;-76
2021/09/23 07:07:32;;;;;;;14.70;7.12;;;8.80;99.90;;;;;;1869718;76;21199;-75
2021/09/23 07:10:00;;;;;;;16.67;7.97;;;8.90;99.90;;;;;;1869018;75;21143;-74
2021/09/23 07:12:26;;;;;;;9.33;7.67;;;9.00;99.90;;;;;;1875023;76;21084;-75
2021/09/23 07:14:52;;;;;;;14.23;7.55;;;9.10;99.90;;;;;;1865597;76;21062;-76
2021/09/23 07:17:19;;;;;;;14.87;7.60;;;9.10;99.90;;;;;;1860538;76;21163;-76
2021/09/23 07:19:45;;;;;;;14.58;8.05;;;9.10;99.90;;;;;;1865067;75;21284;-75
2021/09/23 07:22:11;;;;;;;15.38;8.03;;;9.20;99.90;;;;;;1859773;75;21150;-77
2021/09/23 07:24:37;;;;;;;15.60;7.03;;;9.30;99.90;;;;;;1862001;76;21038;-76
2021/09/23 07:27:03;;;;;;;13.05;6.90;;;9.50;99.90;;;;;;1879831;76;21161;-75
2021/09/23 07:29:29;;;;;;;14.25;7.00;;;9.70;99.90;;;;;;1857666;76;21084;-76
2021/09/23 07:31:55;;;;;;;13.08;7.28;;;9.80;99.90;;;;;;1869350;76;21612;-76
2021/09/23 07:34:22;;;;;;;10.50;6.58;;;9.80;99.90;;;;;;1858766;76;21538;-76
2021/09/23 07:36:48;;;;;;;12.25;6.92;;;10.00;99.90;;;;;;1863749;76;21212;-76
2021/09/23 07:39:14;;;;;;;27.75;7.62;;;10.10;99.90;;;;;;1865328;76;21536;-78
2021/09/23 07:41:40;;;;;;;14.15;7.00;;;10.10;99.90;;;;;;1865906;76;21508;-78
2021/09/23 07:44:06;;;;;;;9.18;6.60;;;10.30;99.90;;;;;;1858189;76;21240;-78
2021/09/23 07:46:33;;;;;;;9.10;6.92;;;10.50;99.90;;;;;;1856107;76;21093;-77
2021/09/23 07:48:59;;;;;;;19.17;7.22;;;10.70;99.90;;;;;;1870054;75;21100;-77
2021/09/23 07:51:25;;;;;;;10.25;6.42;;;10.70;99.90;;;;;;1853396;76;21092;-76
2021/09/23 07:53:51;;;;;;;16.50;7.17;;;10.80;99.90;;;;;;1858250;76;21162;-78
2021/09/23 07:56:18;;;;;;;12.93;7.80;;;11.20;99.90;;;;;;1863114;76;21061;-77
2021/09/23 07:58:45;;;;;;;8.80;7.03;;;11.30;99.90;;;;;;1863846;76;21182;-77
2021/09/23 08:01:11;;;;;;;17.90;8.33;;;11.50;99.90;;;;;;1852998;76;21320;-78
2021/09/23 08:03:37;;;;;;;11.20;7.08;;;11.60;99.90;;;;;;1862761;76;21096;-78
2021/09/23 08:06:03;;;;;;;11.28;7.12;;;12.00;99.90;;;;;;1863757;76;21061;-78
2021/09/23 08:08:29;;;;;;;11.18;7.15;;;12.30;99.90;;;;;;1872954;75;21092;-76
2021/09/23 08:10:55;;;;;;;9.63;6.65;;;12.70;99.90;;;;;;1873045;76;21087;-78
2021/09/23 08:13:21;;;;;;;9.23;6.85;;;13.00;99.90;;;;;;1863233;76;21163;-78
2021/09/23 08:15:47;;;;;;;14.40;6.87;;;13.30;99.90;;;;;;1868041;76;21061;-78
2021/09/23 08:18:15;;;;;;;11.97;6.15;;;13.50;99.90;;;;;;1858604;76;21190;-78
2021/09/23 08:20:41;;;;;;;9.98;6.58;;;13.60;99.90;;;;;;1863425;76;21099;-77
2021/09/23 08:23:09;;;;;;;10.30;5.72;;;13.80;99.90;;;;;;1860135;76;21104;-79
2021/09/23 08:25:35;;;;;;;7.08;5.42;;;14.10;99.90;;;;;;1873487;75;21092;-78
2021/09/23 08:28:01;;;;;;;11.33;6.20;;;14.20;99.90;;;;;;1861503;76;21166;-78
2021/09/23 08:30:27;;;;;;;8.63;5.67;;;14.20;99.90;;;;;;1863426;76;21166;-77
2021/09/23 08:32:53;;;;;;;12.45;5.62;;;14.30;99.90;;;;;;1859287;76;21092;-76
2021/09/23 08:35:19;;;;;;;8.10;5.53;;;14.80;99.90;;;;;;1859138;75;21116;-77
2021/09/23 08:37:46;;;;;;;8.05;5.40;;;15.00;99.90;;;;;;1853815;76;21061;-78
2021/09/23 08:40:12;;;;;;;10.35;6.12;;;15.10;99.90;;;;;;1853797;76;21174;-77
2021/09/23 08:42:39;;;;;;;13.35;5.55;;;15.10;99.90;;;;;;1858805;76;21181;-79
2021/09/23 08:45:05;;;;;;;10.05;5.35;;;15.10;99.90;;;;;;1852162;76;21096;-78
2021/09/23 08:47:31;;;;;;;8.23;5.30;;;15.60;99.90;;;;;;1855563;76;21119;-77
2021/09/23 08:50:00;;;;;;;8.00;5.42;;;16.00;99.90;;;;;;1859236;76;21207;-78
2021/09/23 08:52:26;;;;;;;5.53;4.62;;;16.40;99.90;;;;;;1872116;76;21199;-81
2021/09/23 08:54:52;;;;;;;15.50;4.75;;;16.70;99.90;;;;;;1858332;76;21100;-80
2021/09/23 08:57:18;;;;;;;8.98;4.80;;;16.70;99.90;;;;;;1858881;76;21175;-80
2021/09/23 08:59:45;;;;;;;9.70;5.30;;;16.70;99.90;;;;;;1863629;76;21088;-78
2021/09/23 09:02:11;;;;;;;10.28;5.20;;;16.80;99.90;;;;;;1863590;76;21076;-77
2021/09/23 09:04:37;;;;;;;8.20;4.95;;;16.90;99.90;;;;;;1863684;76;21158;-77
2021/09/23 09:07:03;;;;;;;7.10;4.92;;;17.40;99.90;;;;;;1859460;76;21137;-77
2021/09/23 09:09:29;;;;;;;5.92;4.92;;;17.60;99.90;;;;;;1873681;76;21100;-78
2021/09/23 09:11:55;;;;;;;5.65;4.22;;;17.90;99.90;;;;;;1862535;76;21158;-78
2021/09/23 09:14:21;;;;;;;7.25;4.72;;;17.30;99.90;;;;;;1860054;76;21166;-78
2021/09/23 09:16:47;;;;;;;6.00;3.87;;;17.10;99.90;;;;;;1858402;76;21065;-78
2021/09/23 09:19:14;;;;;;;6.20;4.00;;;17.20;99.90;;;;;;1867170;76;21088;-75
2021/09/23 09:21:40;;;;;;;4.17;3.40;;;17.40;99.90;;;;;;1854838;77;21154;-74
2021/09/23 09:24:06;;;;;;;5.67;3.87;;;17.70;99.90;;;;;;1867058;76;21162;-74
2021/09/23 09:26:37;;;;;;;8.70;4.03;;;18.00;99.90;;;;;;1866975;76;21057;-76
2021/09/23 09:29:02;;;;;;;;;;;18.30;99.90;;;;;;1856564;76;21182;-75
2021/09/23 09:31:28;;;;;;;6.47;4.00;;;18.70;99.90;;;;;;1853660;76;20250;-75
2021/09/23 09:33:55;;;;;;;10.30;3.77;;;18.80;99.90;;;;;;1858646;76;21088;-76
2021/09/23 09:36:21;;;;;;;10.03;3.33;;;19.00;99.90;;;;;;1853478;76;21191;-75
2021/09/23 09:38:47;;;;;;;4.45;3.22;;;19.50;99.90;;;;;;1862863;75;21088;-75
2021/09/23 09:41:13;;;;;;;4.12;3.05;;;20.00;99.90;;;;;;1854125;76;21092;-74
2021/09/23 09:43:39;;;;;;;7.05;3.58;;;20.30;99.90;;;;;;1863467;75;21244;-74
2021/09/23 09:46:06;;;;;;;6.45;3.12;;;20.40;99.90;;;;;;1858494;76;21065;-77
2021/09/23 09:48:32;;;;;;;7.03;2.92;;;20.10;99.90;;;;;;1863513;76;21096;-76
2021/09/23 09:50:58;;;;;;;5.22;2.70;;;20.10;99.90;;;;;;1853631;76;21085;-76
2021/09/23 09:53:24;;;;;;;5.37;3.20;;;20.30;99.90;;;;;;1854178;76;21096;-77
2021/09/23 09:55:50;;;;;;;2.75;2.52;;;20.40;99.90;;;;;;1863445;76;21088;-77
2021/09/23 09:58:18;;;;;;;5.37;3.08;;;20.60;99.90;;;;;;1862600;76;21053;-78
2021/09/23 10:00:46;;;;;;;3.70;2.52;;;20.40;99.90;;;;;;1858709;76;21530;-76
2021/09/23 10:03:12;;;;;;;4.72;2.67;;;20.30;99.90;;;;;;1865344;75;21167;-77
2021/09/23 10:05:38;;;;;;;6.72;2.90;;;21.20;99.90;;;;;;1861118;76;21084;-76
2021/09/23 10:08:05;;;;;;;5.47;2.60;;;20.90;99.90;;;;;;1865264;75;21174;-76
2021/09/23 10:10:31;;;;;;;3.45;2.40;;;20.90;99.90;;;;;;1862780;75;21050;-78
2021/09/23 10:12:58;;;;;;;4.85;2.62;;;20.70;99.90;;;;;;1859028;76;21202;-76
2021/09/23 10:15:24;;;;;;;3.10;2.12;;;20.70;99.90;;;;;;1859104;76;21093;-76
2021/09/23 10:17:50;;;;;;;3.77;2.40;;;21.20;99.90;;;;;;1856559;76;21182;-77
2021/09/23 10:20:19;;;;;;;8.50;2.30;;;21.50;99.90;;;;;;1868128;76;21099;-76
2021/09/23 10:22:44;;;;;;;3.67;2.87;;;21.50;99.90;;;;;;1872444;76;21609;-74
2021/09/23 10:25:10;;;;;;;3.72;2.33;;;21.30;99.90;;;;;;1867970;76;21213;-76
2021/09/23 10:30:20;;;;;;;3.65;2.62;;;21.50;99.90;;;;;;1852981;76;21151;-76
2021/09/23 10:32:46;;;;;;;2.83;1.80;;;22.60;99.90;;;;;;1862941;76;21095;-75
2021/09/23 10:35:12;;;;;;;3.35;2.12;;;22.40;99.90;;;;;;1862905;76;21096;-74
2021/09/23 10:37:39;;;;;;;2.30;2.08;;;22.20;99.90;;;;;;1863285;76;21092;-76
2021/09/23 10:40:05;;;;;;;4.05;2.02;;;22.20;99.90;;;;;;1858347;75;21297;-75
2021/09/23 10:42:31;;;;;;;2.12;1.90;;;22.70;99.90;;;;;;1858965;76;21076;-75
2021/09/23 10:44:57;;;;;;;2.80;1.92;;;23.80;99.90;;;;;;1866038;75;21066;-76
2021/09/23 10:47:23;;;;;;;5.03;1.60;;;23.90;99.90;;;;;;1864762;75;21173;-74
2021/09/23 10:49:50;;;;;;;3.67;2.00;;;23.70;99.90;;;;;;1858160;76;21221;-74
2021/09/23 10:52:16;;;;;;;3.70;1.98;;;23.20;99.90;;;;;;1862236;76;21307;-75
2021/09/23 10:54:42;;;;;;;1.70;1.60;;;23.00;99.90;;;;;;1858841;76;21112;-75
2021/09/23 10:57:08;;;;;;;2.92;1.62;;;23.10;99.90;;;;;;1853220;76;21088;-73
2021/09/23 10:59:34;;;;;;;3.47;1.70;;;24.00;99.90;;;;;;1877670;76;21092;-75
2021/09/23 11:02:00;;;;;;;1.75;1.40;;;23.50;99.90;;;;;;1863156;76;21081;-75
2021/09/23 11:04:26;;;;;;;1.92;1.50;;;23.70;99.90;;;;;;1862797;75;21201;-75
2021/09/23 11:06:55;;;;;;;2.60;1.55;;;23.70;99.90;;;;;;1862574;75;21249;-76
2021/09/23 11:09:20;;;;;;;2.70;1.50;;;23.50;99.90;;;;;;1857971;76;21505;-75
2021/09/23 11:11:46;;;;;;;2.77;1.72;;;24.30;99.90;;;;;;1864266;75;21465;-75
2021/09/23 11:14:12;;;;;;;2.92;1.67;;;25.00;99.90;;;;;;1866801;75;21178;-76
2021/09/23 11:16:39;;;;;;;1.60;1.50;;;24.70;99.90;;;;;;1858139;76;21089;-75
2021/09/23 11:19:05;;;;;;;2.58;1.70;;;25.10;99.90;;;;;;1858212;76;21135;-74
2021/09/23 11:21:31;;;;;;;2.90;1.30;;;25.30;99.90;;;;;;1863089;76;21057;-74
2021/09/23 11:23:57;;;;;;;2.52;1.70;;;24.90;99.90;;;;;;1863254;76;21100;-75
2021/09/23 11:26:23;;;;;;;1.47;1.37;;;23.90;99.90;;;;;;1860501;76;21088;-75
2021/09/23 11:28:49;;;;;;;2.75;1.60;;;24.30;99.90;;;;;;1860493;75;21131;-75
2021/09/23 11:31:15;;;;;;;1.80;1.42;;;24.40;99.90;;;;;;1858139;75;21170;-77
2021/09/23 11:33:42;;;;;;;2.70;1.30;;;25.00;99.90;;;;;;1858171;76;21134;-77
2021/09/23 11:36:11;;;;;;;1.60;1.27;;;25.50;99.90;;;;;;1861395;76;21099;-76
2021/09/23 11:38:36;;;;;;;1.60;1.35;;;25.20;99.90;;;;;;1854366;76;21231;-75
2021/09/23 11:41:02;;;;;;;1.90;1.32;;;24.90;99.90;;;;;;1872026;76;21158;-76
2021/09/23 11:43:31;;;;;;;1.80;1.27;;;25.20;99.90;;;;;;1868086;76;21583;-75
2021/09/23 11:45:58;;;;;;;3.02;2.08;;;25.30;99.90;;;;;;1873056;76;21170;-75
2021/09/23 11:48:27;;;;;;;2.20;1.40;;;26.20;99.90;;;;;;1858335;76;21147;-76
2021/09/23 11:50:53;;;;;;;1.70;1.20;;;27.40;99.90;;;;;;1868153;75;21176;-76
2021/09/23 11:53:19;;;;;;;3.75;1.50;;;26.80;99.90;;;;;;1862096;76;21171;-76
2021/09/23 11:55:45;;;;;;;4.70;1.60;;;25.90;99.90;;;;;;1864265;76;21100;-76
2021/09/23 11:58:11;;;;;;;1.15;1.05;;;25.90;99.90;;;;;;1866549;76;21100;-76
2021/09/23 12:00:37;;;;;;;1.37;0.98;;;26.70;99.90;;;;;;1858298;76;21162;-74
2021/09/23 12:03:04;;;;;;;1.40;1.30;;;26.80;99.90;;;;;;1863149;75;21096;-76
2021/09/23 12:05:31;;;;;;;1.70;1.17;;;26.60;99.90;;;;;;1853310;76;21097;-76
2021/09/23 12:07:57;;;;;;;4.78;2.27;;;26.60;99.90;;;;;;1858253;76;21100;-75
2021/09/23 12:10:23;;;;;;;1.20;1.10;;;26.30;98.80;;;;;;1856144;76;21104;-76
2021/09/23 12:12:50;;;;;;;1.10;0.93;;;26.60;98.20;;;;;;1870042;76;21456;-76
2021/09/23 12:15:16;;;;;;;2.75;0.82;;;27.10;98.40;;;;;;1856643;76;21100;-74
2021/09/23 12:17:42;;;;;;;2.22;1.00;;;27.50;95.80;;;;;;1863220;76;21057;-73
2021/09/23 12:20:09;;;;;;;4.05;1.12;;;27.70;95.60;;;;;;1869469;75;21150;-73
2021/09/23 12:22:35;;;;;;;1.75;0.82;;;27.70;94.70;;;;;;1863207;76;21092;-74
2021/09/23 12:25:01;;;;;;;1.10;1.00;;;28.30;92.40;;;;;;1857346;75;21613;-74
2021/09/23 12:27:28;;;;;;;4.47;1.65;;;27.70;92.00;;;;;;1858902;76;21250;-75
2021/09/23 12:29:54;;;;;;;1.52;1.00;;;27.40;92.40;;;;;;1858244;76;21094;-74
2021/09/23 12:32:21;;;;;;;2.15;1.62;;;27.50;92.40;;;;;;1853275;76;21500;-76
2021/09/23 12:34:47;;;;;;;2.77;0.90;;;27.30;92.70;;;;;;1863084;76;21228;-76
2021/09/23 12:37:13;;;;;;;4.67;1.12;;;27.20;92.40;;;;;;1863058;76;21516;-76
2021/09/23 12:39:42;;;;;;;1.77;0.88;;;27.40;92.00;;;;;;1858246;76;21480;-77
2021/09/23 12:42:07;;;;;;;1.00;0.90;;;28.10;89.70;;;;;;1858067;75;21069;-77
2021/09/23 12:44:33;;;;;;;1.22;0.95;;;27.70;89.10;;;;;;1858279;76;21088;-75
2021/09/23 12:47:00;;;;;;;1.72;1.10;;;27.80;87.80;;;;;;1858313;75;21394;-75
2021/09/23 12:49:26;;;;;;;1.57;1.00;;;27.70;87.00;;;;;;1858196;76;21096;-76